Reo, Indiana
Current Conditions -  °F | °C
As of 4:03 AM on Monday 26 Jan 2015 (Local Time) from KOWB Reporting Station
Overcast Overcast  
Wind Chill: 20°   Ceiling: 1600
Heat Index: 30°   Visibility: 10mi
Dew Point: 25°   Wind: 13mph
Humidity: 80%   Direction: 340°NNW
Pressure: 29.93"   Gusts: 23mph
Location:  37.8791°N, 87.0955°W
Report Text: KOWB 261003Z AUTO 34011G20KT 10SM OVC016 M01/M04 A2993 RMK AO2 TSNO
Loading
Personal Weather Stations






























Interactive Weather Map New forecast layout! Learn more

10-Day Weather Forecast

Advertisements
Track Severe Weather on mobile